KOSH/OSH METAR and TAF weather

Enter ICAO airport designator
Station Type Date Time Source
KOSH METAR 2020/10/20 16:53 UTC NOAA

KOSH 201653Z 11007KT 10SM SCT100 04/M02 A3028 RMK AO2 SLP267 T00441017


Station Type Date Time Source
KOSH Decoded METAR 2020/10/20 16:53 UTC NOAA

WITTMAN REGIONAL AIRPORT, WI, United States (KOSH) 43-58N 88-33W 248M
Oct 20, 2020 - 12:53 PM EDT / 2020.10.20 1653 UTC
Wind: from the ESE (110 degrees) at 8 MPH (7 KT):0
Visibility: 10 mile(s):0
Sky conditions: partly cloudy
Temperature: 39.9 F (4.4 C)
Dew Point: 28.9 F (-1.7 C)
Relative Humidity: 64%
Pressure (altimeter): 30.28 in. Hg (1025 hPa)
ob: KOSH 201653Z 11007KT 10SM SCT100 04/M02 A3028 RMK AO2 SLP267 T00441017
cycle: 17

Station Type Date Time Source
KOSH TAF 2020/07/18 21:24 UTC NOAA

TAF
AMD KOSH 182120Z 1821/1918 21009G18KT P6SM SCT110
FM190200 21009KT P6SM VCTS SCT100CB
FM190900 23011KT P6SM TSRA OVC030CB
FM191000 23011G19KT P6SM VCTS OVC040CB
FM191100 24011KT P6SM OVC021
FM191300 27011KT P6SM BKN045

Example: see airport list